EFLP

Lappeenranta Airport

Lappeenranta, Finland
METAR EFLP 211520Z 01006KT 340V040 9999 BKN029 BKN070 05/02 Q1000
Observed Flight Rules
Apr-21 @ 15:20 UTC (21 minutes ago) Marginal Visual Flight Rules
Wind Visibility Clouds
10° at 6 knots 10,000+ meters
  • Broken at 2,900' AGL
  • Broken at 7,000' AGL
Temperatures Readings
Current 5°C / 41°F
Dewpoint 2°C / 36°F
Humidity 81%
Altimeter 29.53" Hg
Pressure 1000 hPa
Elevation 106
METAR EFLP 211520Z 01006KT 340V040 9999 BKN029 BKN070 05/02 Q1000
Observed Flight Rules
Apr-21 @ 15:20 UTC
(21 minutes ago)
MVFR
Wind Visibility
10° at 6 knots 10,000+ meters
Clouds
  • Broken at 2,900' AGL
  • Broken at 7,000' AGL
Temperature Dewpoint
5°C / 41°F 2°C / 36°F
Humidity Altimeter Pressure
81% 29.53" Hg 1000 hPa